sensor_id;sensor_type;location;lat;lon;timestamp;P1;durP1;ratioP1;P2;durP2;ratioP2
21297;SDS011;10808;48.010;11.326;2023-07-13T00:01:29;5.07;;;3.97;;
21297;SDS011;10808;48.010;11.326;2023-07-13T00:03:59;4.50;;;3.50;;
21297;SDS011;10808;48.010;11.326;2023-07-13T00:06:25;5.13;;;3.65;;
21297;SDS011;10808;48.010;11.326;2023-07-13T00:08:55;5.30;;;3.50;;
21297;SDS011;10808;48.010;11.326;2023-07-13T00:11:21;5.83;;;4.00;;
21297;SDS011;10808;48.010;11.326;2023-07-13T00:13:47;6.10;;;3.73;;
21297;SDS011;10808;48.010;11.326;2023-07-13T00:16:13;7.57;;;4.10;;
21297;SDS011;10808;48.010;11.326;2023-07-13T00:18:40;10.75;;;4.13;;
21297;SDS011;10808;48.010;11.326;2023-07-13T00:21:06;5.50;;;3.80;;
21297;SDS011;10808;48.010;11.326;2023-07-13T00:23:33;5.63;;;4.30;;
21297;SDS011;10808;48.010;11.326;2023-07-13T00:26:04;4.43;;;3.80;;
21297;SDS011;10808;48.010;11.326;2023-07-13T00:28:32;6.43;;;3.97;;
21297;SDS011;10808;48.010;11.326;2023-07-13T00:30:59;6.50;;;3.90;;
21297;SDS011;10808;48.010;11.326;2023-07-13T00:33:26;6.70;;;4.00;;
21297;SDS011;10808;48.010;11.326;2023-07-13T00:35:54;4.32;;;3.70;;
21297;SDS011;10808;48.010;11.326;2023-07-13T00:38:20;5.07;;;3.88;;
21297;SDS011;10808;48.010;11.326;2023-07-13T00:40:47;5.88;;;3.83;;
21297;SDS011;10808;48.010;11.326;2023-07-13T00:43:15;5.97;;;4.20;;
21297;SDS011;10808;48.010;11.326;2023-07-13T00:48:10;5.53;;;3.88;;
21297;SDS011;10808;48.010;11.326;2023-07-13T00:50:38;4.97;;;3.63;;
21297;SDS011;10808;48.010;11.326;2023-07-13T00:53:06;4.88;;;3.35;;
21297;SDS011;10808;48.010;11.326;2023-07-13T00:55:34;5.13;;;3.50;;
21297;SDS011;10808;48.010;11.326;2023-07-13T00:58:01;4.57;;;3.13;;
21297;SDS011;10808;48.010;11.326;2023-07-13T01:00:27;5.28;;;2.92;;
21297;SDS011;10808;48.010;11.326;2023-07-13T01:02:55;3.45;;;2.92;;
21297;SDS011;10808;48.010;11.326;2023-07-13T01:05:22;3.90;;;3.00;;
21297;SDS011;10808;48.010;11.326;2023-07-13T01:07:50;5.55;;;3.03;;
21297;SDS011;10808;48.010;11.326;2023-07-13T01:10:19;3.58;;;2.80;;
21297;SDS011;10808;48.010;11.326;2023-07-13T01:12:47;3.70;;;2.90;;
21297;SDS011;10808;48.010;11.326;2023-07-13T01:18:01;3.10;;;2.70;;
21297;SDS011;10808;48.010;11.326;2023-07-13T01:20:30;4.47;;;3.20;;
21297;SDS011;10808;48.010;11.326;2023-07-13T01:22:57;3.90;;;2.70;;
21297;SDS011;10808;48.010;11.326;2023-07-13T01:25:23;6.00;;;2.67;;
21297;SDS011;10808;48.010;11.326;2023-07-13T01:27:49;4.43;;;2.90;;
21297;SDS011;10808;48.010;11.326;2023-07-13T01:30:15;4.13;;;2.55;;
21297;SDS011;10808;48.010;11.326;2023-07-13T01:32:41;3.97;;;2.95;;
21297;SDS011;10808;48.010;11.326;2023-07-13T01:35:07;6.57;;;2.90;;
21297;SDS011;10808;48.010;11.326;2023-07-13T01:37:33;4.22;;;2.90;;
21297;SDS011;10808;48.010;11.326;2023-07-13T01:40:02;4.37;;;2.87;;
21297;SDS011;10808;48.010;11.326;2023-07-13T01:42:29;3.78;;;2.80;;
21297;SDS011;10808;48.010;11.326;2023-07-13T01:44:56;4.88;;;2.92;;
21297;SDS011;10808;48.010;11.326;2023-07-13T01:47:22;4.30;;;3.00;;
21297;SDS011;10808;48.010;11.326;2023-07-13T01:49:49;3.78;;;2.67;;
21297;SDS011;10808;48.010;11.326;2023-07-13T01:52:17;3.92;;;2.88;;
21297;SDS011;10808;48.010;11.326;2023-07-13T01:54:43;4.32;;;2.92;;
21297;SDS011;10808;48.010;11.326;2023-07-13T01:57:09;5.18;;;3.03;;
21297;SDS011;10808;48.010;11.326;2023-07-13T01:59:35;5.25;;;3.13;;
21297;SDS011;10808;48.010;11.326;2023-07-13T02:02:01;5.72;;;3.40;;
21297;SDS011;10808;48.010;11.326;2023-07-13T02:04:27;5.50;;;3.10;;
21297;SDS011;10808;48.010;11.326;2023-07-13T02:06:53;5.17;;;3.20;;
21297;SDS011;10808;48.010;11.326;2023-07-13T02:09:21;5.43;;;3.30;;
21297;SDS011;10808;48.010;11.326;2023-07-13T02:11:47;4.15;;;3.15;;
21297;SDS011;10808;48.010;11.326;2023-07-13T02:14:14;5.80;;;3.80;;
21297;SDS011;10808;48.010;11.326;2023-07-13T02:16:41;5.68;;;3.40;;
21297;SDS011;10808;48.010;11.326;2023-07-13T02:19:07;5.65;;;3.40;;
21297;SDS011;10808;48.010;11.326;2023-07-13T02:21:34;5.33;;;3.50;;
21297;SDS011;10808;48.010;11.326;2023-07-13T02:24:00;7.57;;;3.90;;
21297;SDS011;10808;48.010;11.326;2023-07-13T02:26:26;4.88;;;3.40;;
21297;SDS011;10808;48.010;11.326;2023-07-13T02:28:53;5.82;;;3.67;;
21297;SDS011;10808;48.010;11.326;2023-07-13T02:31:19;5.18;;;3.90;;
21297;SDS011;10808;48.010;11.326;2023-07-13T02:33:45;4.60;;;3.50;;
21297;SDS011;10808;48.010;11.326;2023-07-13T02:36:11;6.80;;;4.40;;
21297;SDS011;10808;48.010;11.326;2023-07-13T02:38:41;4.65;;;4.00;;
21297;SDS011;10808;48.010;11.326;2023-07-13T02:41:08;6.32;;;4.60;;
21297;SDS011;10808;48.010;11.326;2023-07-13T02:43:35;6.82;;;5.07;;
21297;SDS011;10808;48.010;11.326;2023-07-13T02:46:02;6.88;;;4.50;;
21297;SDS011;10808;48.010;11.326;2023-07-13T02:48:34;6.55;;;5.18;;
21297;SDS011;10808;48.010;11.326;2023-07-13T02:51:01;10.37;;;5.03;;
21297;SDS011;10808;48.010;11.326;2023-07-13T02:53:28;6.10;;;4.43;;
21297;SDS011;10808;48.010;11.326;2023-07-13T02:55:54;7.35;;;4.80;;
21297;SDS011;10808;48.010;11.326;2023-07-13T02:58:20;9.45;;;4.93;;
21297;SDS011;10808;48.010;11.326;2023-07-13T03:00:46;7.43;;;4.40;;
21297;SDS011;10808;48.010;11.326;2023-07-13T03:03:13;4.93;;;3.78;;
21297;SDS011;10808;48.010;11.326;2023-07-13T03:05:40;7.40;;;3.30;;
21297;SDS011;10808;48.010;11.326;2023-07-13T03:08:08;5.75;;;3.58;;
21297;SDS011;10808;48.010;11.326;2023-07-13T03:10:35;6.70;;;3.67;;
21297;SDS011;10808;48.010;11.326;2023-07-13T03:13:01;5.68;;;3.40;;
21297;SDS011;10808;48.010;11.326;2023-07-13T03:15:27;7.43;;;3.75;;
21297;SDS011;10808;48.010;11.326;2023-07-13T03:17:53;6.40;;;3.42;;
21297;SDS011;10808;48.010;11.326;2023-07-13T03:20:19;5.05;;;3.45;;
21297;SDS011;10808;48.010;11.326;2023-07-13T03:22:46;5.25;;;3.15;;
21297;SDS011;10808;48.010;11.326;2023-07-13T03:25:12;5.72;;;3.20;;
21297;SDS011;10808;48.010;11.326;2023-07-13T03:27:38;4.60;;;3.33;;
21297;SDS011;10808;48.010;11.326;2023-07-13T03:30:04;4.80;;;3.40;;
21297;SDS011;10808;48.010;11.326;2023-07-13T03:32:31;5.00;;;3.20;;
21297;SDS011;10808;48.010;11.326;2023-07-13T03:34:58;6.30;;;3.10;;
21297;SDS011;10808;48.010;11.326;2023-07-13T03:37:24;5.78;;;3.80;;
21297;SDS011;10808;48.010;11.326;2023-07-13T03:39:50;5.10;;;3.20;;
21297;SDS011;10808;48.010;11.326;2023-07-13T03:42:16;4.80;;;3.45;;
21297;SDS011;10808;48.010;11.326;2023-07-13T03:44:42;6.03;;;3.22;;
21297;SDS011;10808;48.010;11.326;2023-07-13T03:47:17;4.07;;;3.05;;
21297;SDS011;10808;48.010;11.326;2023-07-13T03:49:44;5.03;;;3.20;;
21297;SDS011;10808;48.010;11.326;2023-07-13T03:52:11;3.35;;;2.83;;
21297;SDS011;10808;48.010;11.326;2023-07-13T03:54:37;5.80;;;3.00;;
21297;SDS011;10808;48.010;11.326;2023-07-13T03:57:03;5.30;;;3.20;;
21297;SDS011;10808;48.010;11.326;2023-07-13T03:59:29;4.93;;;3.20;;
21297;SDS011;10808;48.010;11.326;2023-07-13T04:01:55;4.15;;;3.20;;
21297;SDS011;10808;48.010;11.326;2023-07-13T04:04:21;6.72;;;3.30;;
21297;SDS011;10808;48.010;11.326;2023-07-13T04:06:47;4.78;;;3.20;;
21297;SDS011;10808;48.010;11.326;2023-07-13T04:09:13;4.13;;;3.28;;
21297;SDS011;10808;48.010;11.326;2023-07-13T04:11:39;4.93;;;3.08;;
21297;SDS011;10808;48.010;11.326;2023-07-13T04:14:06;6.13;;;3.10;;
21297;SDS011;10808;48.010;11.326;2023-07-13T04:16:32;4.88;;;2.75;;
21297;SDS011;10808;48.010;11.326;2023-07-13T04:18:58;4.35;;;3.13;;
21297;SDS011;10808;48.010;11.326;2023-07-13T04:21:27;3.90;;;2.90;;
21297;SDS011;10808;48.010;11.326;2023-07-13T04:23:54;4.47;;;3.10;;
21297;SDS011;10808;48.010;11.326;2023-07-13T04:26:20;4.68;;;3.03;;
21297;SDS011;10808;48.010;11.326;2023-07-13T04:28:48;6.25;;;3.42;;
21297;SDS011;10808;48.010;11.326;2023-07-13T04:31:14;4.72;;;2.70;;
21297;SDS011;10808;48.010;11.326;2023-07-13T04:33:41;4.85;;;3.13;;
21297;SDS011;10808;48.010;11.326;2023-07-13T04:36:08;3.55;;;2.90;;
21297;SDS011;10808;48.010;11.326;2023-07-13T04:38:35;5.43;;;2.95;;
21297;SDS011;10808;48.010;11.326;2023-07-13T04:41:06;4.38;;;2.70;;
21297;SDS011;10808;48.010;11.326;2023-07-13T04:43:33;3.30;;;2.77;;
21297;SDS011;10808;48.010;11.326;2023-07-13T04:46:07;5.30;;;2.53;;
21297;SDS011;10808;48.010;11.326;2023-07-13T04:48:35;3.55;;;2.55;;
21297;SDS011;10808;48.010;11.326;2023-07-13T04:51:01;3.60;;;2.67;;
21297;SDS011;10808;48.010;11.326;2023-07-13T04:53:27;5.60;;;2.60;;
21297;SDS011;10808;48.010;11.326;2023-07-13T04:55:54;2.95;;;2.50;;
21297;SDS011;10808;48.010;11.326;2023-07-13T04:58:21;3.60;;;2.50;;
21297;SDS011;10808;48.010;11.326;2023-07-13T05:00:48;4.53;;;2.58;;
21297;SDS011;10808;48.010;11.326;2023-07-13T05:03:14;4.30;;;2.60;;
21297;SDS011;10808;48.010;11.326;2023-07-13T05:05:40;4.75;;;2.60;;
21297;SDS011;10808;48.010;11.326;2023-07-13T05:08:06;3.05;;;2.47;;
21297;SDS011;10808;48.010;11.326;2023-07-13T05:10:33;4.65;;;2.55;;
21297;SDS011;10808;48.010;11.326;2023-07-13T05:12:59;3.75;;;2.72;;
21297;SDS011;10808;48.010;11.326;2023-07-13T05:15:26;3.22;;;2.50;;
21297;SDS011;10808;48.010;11.326;2023-07-13T05:17:52;4.75;;;2.47;;
21297;SDS011;10808;48.010;11.326;2023-07-13T05:20:18;3.08;;;2.50;;
21297;SDS011;10808;48.010;11.326;2023-07-13T05:22:45;5.43;;;2.95;;
21297;SDS011;10808;48.010;11.326;2023-07-13T05:25:14;4.38;;;3.17;;
21297;SDS011;10808;48.010;11.326;2023-07-13T05:27:40;5.30;;;2.90;;
21297;SDS011;10808;48.010;11.326;2023-07-13T05:30:06;4.35;;;3.10;;
21297;SDS011;10808;48.010;11.326;2023-07-13T05:32:36;4.07;;;3.00;;
21297;SDS011;10808;48.010;11.326;2023-07-13T05:35:02;6.25;;;3.20;;
21297;SDS011;10808;48.010;11.326;2023-07-13T05:37:28;5.88;;;3.08;;
21297;SDS011;10808;48.010;11.326;2023-07-13T05:39:54;6.60;;;3.38;;
21297;SDS011;10808;48.010;11.326;2023-07-13T05:42:20;5.80;;;3.38;;
21297;SDS011;10808;48.010;11.326;2023-07-13T05:44:46;6.95;;;3.70;;
21297;SDS011;10808;48.010;11.326;2023-07-13T05:47:12;4.70;;;3.30;;
21297;SDS011;10808;48.010;11.326;2023-07-13T05:49:40;5.70;;;3.20;;
21297;SDS011;10808;48.010;11.326;2023-07-13T05:52:06;5.20;;;3.50;;
21297;SDS011;10808;48.010;11.326;2023-07-13T05:54:32;4.20;;;3.20;;
21297;SDS011;10808;48.010;11.326;2023-07-13T05:56:58;4.68;;;3.58;;
21297;SDS011;10808;48.010;11.326;2023-07-13T05:59:24;5.10;;;3.53;;
21297;SDS011;10808;48.010;11.326;2023-07-13T06:01:51;4.63;;;3.38;;
21297;SDS011;10808;48.010;11.326;2023-07-13T06:04:18;7.43;;;3.58;;
21297;SDS011;10808;48.010;11.326;2023-07-13T06:06:44;6.05;;;3.70;;
21297;SDS011;10808;48.010;11.326;2023-07-13T06:09:10;4.03;;;3.35;;
21297;SDS011;10808;48.010;11.326;2023-07-13T06:11:36;5.35;;;3.55;;
21297;SDS011;10808;48.010;11.326;2023-07-13T06:14:02;4.32;;;3.47;;
21297;SDS011;10808;48.010;11.326;2023-07-13T06:16:29;5.90;;;4.10;;
21297;SDS011;10808;48.010;11.326;2023-07-13T06:18:55;5.03;;;3.70;;
21297;SDS011;10808;48.010;11.326;2023-07-13T06:21:22;4.37;;;3.50;;
21297;SDS011;10808;48.010;11.326;2023-07-13T06:23:49;7.95;;;4.13;;
21297;SDS011;10808;48.010;11.326;2023-07-13T06:26:17;6.55;;;3.70;;
21297;SDS011;10808;48.010;11.326;2023-07-13T06:28:44;5.65;;;3.80;;
21297;SDS011;10808;48.010;11.326;2023-07-13T06:31:11;6.65;;;4.10;;
21297;SDS011;10808;48.010;11.326;2023-07-13T06:33:39;7.13;;;3.90;;
21297;SDS011;10808;48.010;11.326;2023-07-13T06:36:06;6.20;;;3.55;;
21297;SDS011;10808;48.010;11.326;2023-07-13T06:38:33;7.00;;;3.60;;
21297;SDS011;10808;48.010;11.326;2023-07-13T06:40:59;6.20;;;4.07;;
21297;SDS011;10808;48.010;11.326;2023-07-13T06:43:25;6.47;;;4.00;;
21297;SDS011;10808;48.010;11.326;2023-07-13T06:45:54;6.63;;;4.15;;
21297;SDS011;10808;48.010;11.326;2023-07-13T06:48:20;7.85;;;4.20;;
21297;SDS011;10808;48.010;11.326;2023-07-13T06:50:47;6.13;;;4.00;;
21297;SDS011;10808;48.010;11.326;2023-07-13T06:53:15;5.88;;;4.10;;
21297;SDS011;10808;48.010;11.326;2023-07-13T06:55:43;5.95;;;4.03;;
21297;SDS011;10808;48.010;11.326;2023-07-13T06:58:09;5.80;;;3.95;;
21297;SDS011;10808;48.010;11.326;2023-07-13T07:00:35;5.43;;;3.80;;
21297;SDS011;10808;48.010;11.326;2023-07-13T07:03:01;5.28;;;3.78;;
21297;SDS011;10808;48.010;11.326;2023-07-13T07:05:27;7.07;;;3.88;;
21297;SDS011;10808;48.010;11.326;2023-07-13T07:07:54;4.70;;;3.92;;
21297;SDS011;10808;48.010;11.326;2023-07-13T07:10:21;6.20;;;3.80;;
21297;SDS011;10808;48.010;11.326;2023-07-13T07:12:47;7.75;;;3.85;;
21297;SDS011;10808;48.010;11.326;2023-07-13T07:15:14;7.38;;;4.10;;
21297;SDS011;10808;48.010;11.326;2023-07-13T07:17:40;5.00;;;3.55;;
21297;SDS011;10808;48.010;11.326;2023-07-13T07:20:06;5.13;;;3.10;;
21297;SDS011;10808;48.010;11.326;2023-07-13T07:22:32;5.90;;;3.17;;
21297;SDS011;10808;48.010;11.326;2023-07-13T07:24:59;3.83;;;3.00;;
21297;SDS011;10808;48.010;11.326;2023-07-13T07:27:25;6.20;;;3.33;;
21297;SDS011;10808;48.010;11.326;2023-07-13T07:29:51;6.78;;;3.22;;
21297;SDS011;10808;48.010;11.326;2023-07-13T07:32:17;5.53;;;2.92;;
21297;SDS011;10808;48.010;11.326;2023-07-13T07:34:44;5.55;;;3.10;;
21297;SDS011;10808;48.010;11.326;2023-07-13T07:37:11;4.10;;;3.03;;
21297;SDS011;10808;48.010;11.326;2023-07-13T07:39:39;8.65;;;3.40;;
21297;SDS011;10808;48.010;11.326;2023-07-13T07:42:05;4.07;;;2.90;;
21297;SDS011;10808;48.010;11.326;2023-07-13T07:44:31;5.68;;;2.95;;
21297;SDS011;10808;48.010;11.326;2023-07-13T07:46:58;4.90;;;2.90;;
21297;SDS011;10808;48.010;11.326;2023-07-13T07:49:24;4.32;;;2.83;;
21297;SDS011;10808;48.010;11.326;2023-07-13T07:51:51;5.45;;;2.90;;
21297;SDS011;10808;48.010;11.326;2023-07-13T07:54:17;7.20;;;3.50;;
21297;SDS011;10808;48.010;11.326;2023-07-13T07:56:43;6.53;;;3.10;;
21297;SDS011;10808;48.010;11.326;2023-07-13T07:59:09;4.63;;;2.72;;
21297;SDS011;10808;48.010;11.326;2023-07-13T08:01:36;9.27;;;3.05;;
21297;SDS011;10808;48.010;11.326;2023-07-13T08:04:02;4.85;;;2.90;;
21297;SDS011;10808;48.010;11.326;2023-07-13T08:06:28;4.97;;;2.80;;
21297;SDS011;10808;48.010;11.326;2023-07-13T08:08:55;5.35;;;3.30;;
21297;SDS011;10808;48.010;11.326;2023-07-13T08:11:21;6.15;;;3.10;;
21297;SDS011;10808;48.010;11.326;2023-07-13T08:13:47;4.97;;;2.80;;
21297;SDS011;10808;48.010;11.326;2023-07-13T08:16:15;4.30;;;3.00;;
21297;SDS011;10808;48.010;11.326;2023-07-13T08:18:41;3.57;;;2.90;;
21297;SDS011;10808;48.010;11.326;2023-07-13T08:21:07;6.43;;;2.97;;
21297;SDS011;10808;48.010;11.326;2023-07-13T08:23:34;3.42;;;2.88;;
21297;SDS011;10808;48.010;11.326;2023-07-13T08:26:00;4.15;;;2.90;;
21297;SDS011;10808;48.010;11.326;2023-07-13T08:28:27;5.37;;;2.90;;
21297;SDS011;10808;48.010;11.326;2023-07-13T08:30:54;8.93;;;3.20;;
21297;SDS011;10808;48.010;11.326;2023-07-13T08:33:20;6.47;;;3.10;;
21297;SDS011;10808;48.010;11.326;2023-07-13T08:35:50;4.82;;;3.30;;
21297;SDS011;10808;48.010;11.326;2023-07-13T08:38:16;5.22;;;3.38;;
21297;SDS011;10808;48.010;11.326;2023-07-13T08:40:43;6.30;;;3.10;;
21297;SDS011;10808;48.010;11.326;2023-07-13T08:43:18;4.05;;;3.10;;
21297;SDS011;10808;48.010;11.326;2023-07-13T08:45:57;4.68;;;3.08;;
21297;SDS011;10808;48.010;11.326;2023-07-13T08:48:32;6.68;;;3.20;;
21297;SDS011;10808;48.010;11.326;2023-07-13T08:51:04;7.38;;;3.10;;
21297;SDS011;10808;48.010;11.326;2023-07-13T08:53:51;5.05;;;2.90;;
21297;SDS011;10808;48.010;11.326;2023-07-13T08:56:21;5.93;;;3.17;;
21297;SDS011;10808;48.010;11.326;2023-07-13T08:58:51;3.67;;;2.77;;
21297;SDS011;10808;48.010;11.326;2023-07-13T09:01:28;4.65;;;2.70;;
21297;SDS011;10808;48.010;11.326;2023-07-13T09:04:15;6.40;;;2.92;;
21297;SDS011;10808;48.010;11.326;2023-07-13T09:12:25;4.22;;;2.78;;
21297;SDS011;10808;48.010;11.326;2023-07-13T09:15:31;6.07;;;2.95;;
21297;SDS011;10808;48.010;11.326;2023-07-13T09:18:03;3.47;;;2.53;;
21297;SDS011;10808;48.010;11.326;2023-07-13T09:21:22;4.43;;;2.60;;
21297;SDS011;10808;48.010;11.326;2023-07-13T09:23:29;3.70;;;2.50;;
21297;SDS011;10808;48.010;11.326;2023-07-13T09:28:50;5.53;;;2.90;;
21297;SDS011;10808;48.010;11.326;2023-07-13T09:31:23;6.57;;;2.70;;
21297;SDS011;10808;48.010;11.326;2023-07-13T09:33:59;3.47;;;2.33;;
21297;SDS011;10808;48.010;11.326;2023-07-13T09:36:27;4.00;;;2.70;;
21297;SDS011;10808;48.010;11.326;2023-07-13T09:44:18;3.90;;;2.65;;
21297;SDS011;10808;48.010;11.326;2023-07-13T09:46:56;3.65;;;2.30;;
21297;SDS011;10808;48.010;11.326;2023-07-13T09:49:23;5.25;;;2.55;;
21297;SDS011;10808;48.010;11.326;2023-07-13T09:52:00;3.75;;;2.30;;
21297;SDS011;10808;48.010;11.326;2023-07-13T09:54:33;2.97;;;2.30;;
21297;SDS011;10808;48.010;11.326;2023-07-13T09:57:01;5.63;;;2.45;;
21297;SDS011;10808;48.010;11.326;2023-07-13T09:59:29;4.35;;;2.53;;
21297;SDS011;10808;48.010;11.326;2023-07-13T10:01:58;5.55;;;2.28;;
21297;SDS011;10808;48.010;11.326;2023-07-13T10:04:31;5.32;;;2.35;;
21297;SDS011;10808;48.010;11.326;2023-07-13T10:07:09;4.07;;;2.10;;
21297;SDS011;10808;48.010;11.326;2023-07-13T10:09:38;4.13;;;2.30;;
21297;SDS011;10808;48.010;11.326;2023-07-13T10:12:13;4.80;;;2.45;;
21297;SDS011;10808;48.010;11.326;2023-07-13T10:14:40;2.95;;;2.00;;
21297;SDS011;10808;48.010;11.326;2023-07-13T10:17:08;3.97;;;2.20;;
21297;SDS011;10808;48.010;11.326;2023-07-13T10:19:38;3.90;;;2.05;;
21297;SDS011;10808;48.010;11.326;2023-07-13T10:24:58;3.03;;;1.80;;
21297;SDS011;10808;48.010;11.326;2023-07-13T10:27:29;3.13;;;1.58;;
21297;SDS011;10808;48.010;11.326;2023-07-13T10:30:01;4.05;;;1.90;;
21297;SDS011;10808;48.010;11.326;2023-07-13T10:32:36;3.15;;;1.70;;
21297;SDS011;10808;48.010;11.326;2023-07-13T10:35:03;3.33;;;1.63;;
21297;SDS011;10808;48.010;11.326;2023-07-13T10:37:39;3.08;;;1.73;;
21297;SDS011;10808;48.010;11.326;2023-07-13T10:40:19;4.88;;;1.70;;
21297;SDS011;10808;48.010;11.326;2023-07-13T10:42:51;4.32;;;1.58;;
21297;SDS011;10808;48.010;11.326;2023-07-13T10:45:20;3.85;;;1.40;;
21297;SDS011;10808;48.010;11.326;2023-07-13T10:47:48;4.13;;;1.50;;
21297;SDS011;10808;48.010;11.326;2023-07-13T10:50:20;4.10;;;1.70;;
21297;SDS011;10808;48.010;11.326;2023-07-13T10:52:49;3.53;;;1.80;;
21297;SDS011;10808;48.010;11.326;2023-07-13T10:55:40;3.30;;;1.50;;
21297;SDS011;10808;48.010;11.326;2023-07-13T10:58:29;3.50;;;1.70;;
21297;SDS011;10808;48.010;11.326;2023-07-13T11:01:22;3.90;;;2.00;;
21297;SDS011;10808;48.010;11.326;2023-07-13T11:03:50;1.90;;;1.40;;
21297;SDS011;10808;48.010;11.326;2023-07-13T11:06:39;4.60;;;1.50;;
21297;SDS011;10808;48.010;11.326;2023-07-13T11:12:01;3.83;;;1.60;;
21297;SDS011;10808;48.010;11.326;2023-07-13T11:25:33;5.30;;;1.73;;
21297;SDS011;10808;48.010;11.326;2023-07-13T11:39:04;3.13;;;1.70;;
21297;SDS011;10808;48.010;11.326;2023-07-13T11:41:45;4.05;;;1.50;;
21297;SDS011;10808;48.010;11.326;2023-07-13T11:44:20;4.88;;;1.90;;
21297;SDS011;10808;48.010;11.326;2023-07-13T11:46:48;3.03;;;1.70;;
21297;SDS011;10808;48.010;11.326;2023-07-13T11:49:17;2.85;;;1.60;;
21297;SDS011;10808;48.010;11.326;2023-07-13T11:51:45;2.75;;;1.52;;
21297;SDS011;10808;48.010;11.326;2023-07-13T11:56:49;3.42;;;1.65;;
21297;SDS011;10808;48.010;11.326;2023-07-13T11:59:15;3.30;;;1.70;;
21297;SDS011;10808;48.010;11.326;2023-07-13T12:01:44;5.32;;;1.60;;
21297;SDS011;10808;48.010;11.326;2023-07-13T12:04:22;3.20;;;1.60;;
21297;SDS011;10808;48.010;11.326;2023-07-13T12:07:03;2.60;;;1.60;;
21297;SDS011;10808;48.010;11.326;2023-07-13T12:09:37;3.33;;;1.70;;
21297;SDS011;10808;48.010;11.326;2023-07-13T12:12:08;3.47;;;1.60;;
21297;SDS011;10808;48.010;11.326;2023-07-13T12:14:39;2.17;;;1.60;;
21297;SDS011;10808;48.010;11.326;2023-07-13T12:17:16;2.97;;;1.55;;
21297;SDS011;10808;48.010;11.326;2023-07-13T12:19:45;2.42;;;1.50;;
21297;SDS011;10808;48.010;11.326;2023-07-13T12:22:13;3.30;;;1.80;;
21297;SDS011;10808;48.010;11.326;2023-07-13T12:24:41;5.40;;;1.92;;
21297;SDS011;10808;48.010;11.326;2023-07-13T12:27:19;2.70;;;1.75;;
21297;SDS011;10808;48.010;11.326;2023-07-13T12:29:49;2.53;;;1.57;;
21297;SDS011;10808;48.010;11.326;2023-07-13T12:32:19;4.75;;;1.92;;
21297;SDS011;10808;48.010;11.326;2023-07-13T12:34:55;3.47;;;2.00;;
21297;SDS011;10808;48.010;11.326;2023-07-13T12:37:23;2.88;;;2.00;;
21297;SDS011;10808;48.010;11.326;2023-07-13T12:39:51;2.95;;;1.83;;
21297;SDS011;10808;48.010;11.326;2023-07-13T12:42:21;5.47;;;1.70;;
21297;SDS011;10808;48.010;11.326;2023-07-13T12:44:56;3.73;;;1.87;;
21297;SDS011;10808;48.010;11.326;2023-07-13T12:47:25;3.78;;;2.08;;
21297;SDS011;10808;48.010;11.326;2023-07-13T12:49:56;4.70;;;2.00;;
21297;SDS011;10808;48.010;11.326;2023-07-13T12:52:29;4.15;;;2.10;;
21297;SDS011;10808;48.010;11.326;2023-07-13T12:54:57;7.70;;;2.10;;
21297;SDS011;10808;48.010;11.326;2023-07-13T12:57:28;4.70;;;2.00;;
21297;SDS011;10808;48.010;11.326;2023-07-13T12:59:54;3.70;;;2.05;;
21297;SDS011;10808;48.010;11.326;2023-07-13T13:02:32;3.25;;;2.00;;
21297;SDS011;10808;48.010;11.326;2023-07-13T13:05:00;3.60;;;2.10;;
21297;SDS011;10808;48.010;11.326;2023-07-13T13:07:28;3.25;;;2.10;;
21297;SDS011;10808;48.010;11.326;2023-07-13T13:09:55;4.50;;;1.80;;
21297;SDS011;10808;48.010;11.326;2023-07-13T13:12:21;4.05;;;2.10;;
21297;SDS011;10808;48.010;11.326;2023-07-13T13:14:49;4.78;;;2.10;;
21297;SDS011;10808;48.010;11.326;2023-07-13T13:17:19;4.10;;;2.08;;
21297;SDS011;10808;48.010;11.326;2023-07-13T13:19:50;5.53;;;2.10;;
21297;SDS011;10808;48.010;11.326;2023-07-13T13:22:18;3.45;;;1.90;;
21297;SDS011;10808;48.010;11.326;2023-07-13T13:24:44;4.05;;;2.00;;
21297;SDS011;10808;48.010;11.326;2023-07-13T13:27:17;3.77;;;1.90;;
21297;SDS011;10808;48.010;11.326;2023-07-13T13:29:45;4.47;;;1.90;;
21297;SDS011;10808;48.010;11.326;2023-07-13T13:32:12;6.13;;;2.10;;
21297;SDS011;10808;48.010;11.326;2023-07-13T13:34:40;3.50;;;2.00;;
21297;SDS011;10808;48.010;11.326;2023-07-13T13:37:24;4.07;;;1.90;;
21297;SDS011;10808;48.010;11.326;2023-07-13T13:39:51;6.13;;;2.25;;
21297;SDS011;10808;48.010;11.326;2023-07-13T13:42:19;4.03;;;1.90;;
21297;SDS011;10808;48.010;11.326;2023-07-13T13:44:48;5.03;;;1.80;;
21297;SDS011;10808;48.010;11.326;2023-07-13T13:47:19;3.78;;;1.73;;
21297;SDS011;10808;48.010;11.326;2023-07-13T13:49:56;4.18;;;1.80;;
21297;SDS011;10808;48.010;11.326;2023-07-13T13:52:23;3.97;;;1.85;;
21297;SDS011;10808;48.010;11.326;2023-07-13T13:54:51;1.95;;;1.73;;
21297;SDS011;10808;48.010;11.326;2023-07-13T13:57:24;3.70;;;1.90;;
21297;SDS011;10808;48.010;11.326;2023-07-13T13:59:54;5.53;;;1.97;;
21297;SDS011;10808;48.010;11.326;2023-07-13T14:02:24;5.65;;;2.22;;
21297;SDS011;10808;48.010;11.326;2023-07-13T14:04:54;3.88;;;1.80;;
21297;SDS011;10808;48.010;11.326;2023-07-13T14:07:22;3.03;;;2.00;;
21297;SDS011;10808;48.010;11.326;2023-07-13T14:09:49;4.97;;;2.00;;
21297;SDS011;10808;48.010;11.326;2023-07-13T14:12:15;3.63;;;1.92;;
21297;SDS011;10808;48.010;11.326;2023-07-13T14:14:41;3.15;;;1.80;;
21297;SDS011;10808;48.010;11.326;2023-07-13T14:17:41;3.90;;;1.88;;
21297;SDS011;10808;48.010;11.326;2023-07-13T14:19:59;4.88;;;2.08;;
21297;SDS011;10808;48.010;11.326;2023-07-13T14:22:26;4.43;;;2.07;;
21297;SDS011;10808;48.010;11.326;2023-07-13T14:24:53;2.67;;;1.80;;
21297;SDS011;10808;48.010;11.326;2023-07-13T14:27:19;3.50;;;1.77;;
21297;SDS011;10808;48.010;11.326;2023-07-13T14:29:46;3.50;;;2.08;;
21297;SDS011;10808;48.010;11.326;2023-07-13T14:32:12;3.22;;;1.95;;
21297;SDS011;10808;48.010;11.326;2023-07-13T14:34:38;2.70;;;1.73;;
21297;SDS011;10808;48.010;11.326;2023-07-13T14:37:05;4.38;;;1.90;;
21297;SDS011;10808;48.010;11.326;2023-07-13T14:39:31;2.67;;;1.80;;
21297;SDS011;10808;48.010;11.326;2023-07-13T14:41:57;3.53;;;1.80;;
21297;SDS011;10808;48.010;11.326;2023-07-13T14:44:24;3.03;;;1.70;;
21297;SDS011;10808;48.010;11.326;2023-07-13T14:46:52;4.35;;;1.80;;
21297;SDS011;10808;48.010;11.326;2023-07-13T14:52:16;5.38;;;1.90;;
21297;SDS011;10808;48.010;11.326;2023-07-13T14:54:44;4.47;;;1.70;;
21297;SDS011;10808;48.010;11.326;2023-07-13T14:57:12;2.53;;;1.70;;
21297;SDS011;10808;48.010;11.326;2023-07-13T14:59:39;2.83;;;1.83;;
21297;SDS011;10808;48.010;11.326;2023-07-13T15:02:16;3.43;;;2.07;;
21297;SDS011;10808;48.010;11.326;2023-07-13T15:04:50;3.53;;;1.90;;
21297;SDS011;10808;48.010;11.326;2023-07-13T15:07:16;3.28;;;1.88;;
21297;SDS011;10808;48.010;11.326;2023-07-13T15:09:44;3.67;;;2.17;;
21297;SDS011;10808;48.010;11.326;2023-07-13T15:12:10;3.17;;;1.80;;
21297;SDS011;10808;48.010;11.326;2023-07-13T15:14:36;3.83;;;2.10;;
21297;SDS011;10808;48.010;11.326;2023-07-13T15:17:02;3.60;;;1.98;;
21297;SDS011;10808;48.010;11.326;2023-07-13T15:19:29;3.20;;;2.00;;
21297;SDS011;10808;48.010;11.326;2023-07-13T15:21:56;2.55;;;1.70;;
21297;SDS011;10808;48.010;11.326;2023-07-13T15:24:23;4.78;;;2.03;;
21297;SDS011;10808;48.010;11.326;2023-07-13T15:26:50;4.03;;;2.15;;
21297;SDS011;10808;48.010;11.326;2023-07-13T15:29:16;4.20;;;2.00;;
21297;SDS011;10808;48.010;11.326;2023-07-13T15:31:42;2.97;;;1.90;;
21297;SDS011;10808;48.010;11.326;2023-07-13T15:34:09;4.18;;;2.00;;